createdAt,value
2017-11-06T00:01:36.583Z,98.60
2017-11-06T00:04:04.111Z,98.50
2017-11-06T00:06:31.652Z,98.20
2017-11-06T00:08:59.209Z,97.90
2017-11-06T00:11:27.142Z,97.40
2017-11-06T00:13:54.682Z,97.40
2017-11-06T00:16:22.196Z,97.40
2017-11-06T00:18:49.759Z,96.90
2017-11-06T00:21:17.288Z,97.30
2017-11-06T00:23:44.822Z,97.80
2017-11-06T00:26:12.365Z,97.90
2017-11-06T00:28:39.887Z,98.00
2017-11-06T00:31:07.826Z,98.10
2017-11-06T00:33:35.357Z,98.10
2017-11-06T00:36:02.894Z,97.80
2017-11-06T00:38:30.839Z,97.40
2017-11-06T00:40:58.385Z,97.40
2017-11-06T00:43:25.910Z,97.40
2017-11-06T00:45:53.441Z,97.40
2017-11-06T00:48:20.978Z,97.70
2017-11-06T00:50:48.894Z,98.00
2017-11-06T00:53:16.444Z,98.00
2017-11-06T00:55:43.965Z,98.20
2017-11-06T00:58:11.516Z,98.10
2017-11-06T01:00:39.049Z,97.80
2017-11-06T01:03:06.581Z,97.70
2017-11-06T01:05:34.135Z,97.80
2017-11-06T01:08:01.652Z,98.00
2017-11-06T01:10:29.586Z,98.10
2017-11-06T01:12:57.106Z,98.10
2017-11-06T01:15:25.022Z,97.80
2017-11-06T01:17:52.553Z,97.80
2017-11-06T01:20:20.468Z,98.10
2017-11-06T01:22:48.095Z,98.10
2017-11-06T01:25:15.625Z,98.70
2017-11-06T01:27:43.149Z,98.80
2017-11-06T01:30:11.090Z,98.50
2017-11-06T01:32:38.613Z,98.50
2017-11-06T01:35:06.592Z,98.30
2017-11-06T01:37:34.508Z,98.00
2017-11-06T01:40:02.030Z,98.00
2017-11-06T01:42:30.307Z,98.10
2017-11-06T01:44:57.836Z,98.20
2017-11-06T01:47:25.383Z,98.30
2017-11-06T01:49:52.910Z,98.40
2017-11-06T01:52:20.437Z,98.40
2017-11-06T01:54:47.974Z,98.60
2017-11-06T01:57:15.511Z,98.90
2017-11-06T01:59:43.074Z,99.20
2017-11-06T02:02:10.595Z,99.70
2017-11-06T02:04:38.519Z,99.90
2017-11-06T02:07:06.065Z,99.90
2017-11-06T02:09:33.591Z,99.90
2017-11-06T02:12:01.147Z,99.90
2017-11-06T02:14:28.665Z,99.90
2017-11-06T02:16:56.184Z,99.90
2017-11-06T02:19:23.727Z,99.90
2017-11-06T02:21:51.256Z,99.90
2017-11-06T02:24:18.834Z,99.90
2017-11-06T02:26:46.385Z,99.90
2017-11-06T02:29:13.899Z,99.90
2017-11-06T02:31:41.840Z,99.50
2017-11-06T02:34:09.367Z,99.50
2017-11-06T02:36:36.919Z,99.60
2017-11-06T02:39:04.851Z,99.60
2017-11-06T02:41:32.397Z,99.60
2017-11-06T02:43:59.916Z,99.40
2017-11-06T02:46:27.471Z,99.30
2017-11-06T02:48:55.003Z,99.20
2017-11-06T02:51:22.542Z,98.80
2017-11-06T02:53:50.068Z,98.80
2017-11-06T02:56:17.651Z,98.70
2017-11-06T02:58:45.180Z,98.80
2017-11-06T03:01:12.710Z,98.70
2017-11-06T03:03:40.253Z,98.70
2017-11-06T03:06:07.779Z,98.70
2017-11-06T03:08:35.708Z,98.20
2017-11-06T03:11:03.262Z,98.20
2017-11-06T03:13:30.804Z,98.50
2017-11-06T03:15:58.721Z,98.30
2017-11-06T03:18:26.276Z,98.30
2017-11-06T03:20:53.795Z,98.40
2017-11-06T03:23:21.312Z,98.10
2017-11-06T03:25:48.862Z,98.40
2017-11-06T03:28:16.390Z,98.40
2017-11-06T03:30:43.932Z,98.30
2017-11-06T03:33:11.463Z,98.10
2017-11-06T03:35:39.028Z,98.00
2017-11-06T03:38:06.554Z,98.50
2017-11-06T03:40:34.077Z,98.40
2017-11-06T03:43:01.630Z,98.20
2017-11-06T03:45:29.150Z,98.30
2017-11-06T03:47:56.701Z,98.40
2017-11-06T03:50:24.221Z,98.40
2017-11-06T03:52:51.795Z,98.40
2017-11-06T03:55:19.322Z,98.30
2017-11-06T03:57:46.834Z,98.30
2017-11-06T04:00:14.385Z,98.50
2017-11-06T04:02:41.945Z,98.70
2017-11-06T04:05:09.930Z,98.40
2017-11-06T04:07:37.854Z,98.50
2017-11-06T04:10:05.374Z,98.50
2017-11-06T04:12:32.913Z,98.50
2017-11-06T04:15:00.434Z,98.40
2017-11-06T04:17:27.994Z,98.40
2017-11-06T04:19:56.029Z,98.40
2017-11-06T04:22:23.546Z,98.30
2017-11-06T04:24:51.491Z,98.60
2017-11-06T04:27:19.014Z,98.60
2017-11-06T04:29:46.574Z,98.50
2017-11-06T04:32:14.106Z,98.10
2017-11-06T04:34:41.637Z,98.10
2017-11-06T04:37:09.187Z,98.00
2017-11-06T04:39:36.711Z,98.00
2017-11-06T04:42:04.275Z,98.10
2017-11-06T04:44:31.798Z,97.90
2017-11-06T04:46:59.728Z,97.90
2017-11-06T04:49:27.274Z,97.90
2017-11-06T04:51:54.814Z,97.90
2017-11-06T04:54:22.760Z,97.90
2017-11-06T04:56:50.287Z,97.90
2017-11-06T04:59:17.873Z,98.10
2017-11-06T05:01:45.402Z,98.10
2017-11-06T05:04:13.329Z,98.30
2017-11-06T05:06:40.882Z,98.20
2017-11-06T05:09:08.404Z,98.20
2017-11-06T05:11:36.032Z,98.30
2017-11-06T05:14:03.556Z,98.20
2017-11-06T05:16:31.130Z,98.20
2017-11-06T05:18:58.644Z,98.30
2017-11-06T05:21:26.164Z,98.20
2017-11-06T05:23:53.746Z,98.00
2017-11-06T05:26:21.265Z,97.90
2017-11-06T05:28:48.810Z,98.00
2017-11-06T05:31:16.329Z,98.10
2017-11-06T05:33:43.901Z,97.80
2017-11-06T05:36:11.417Z,98.00
2017-11-06T05:38:38.940Z,98.20
2017-11-06T05:41:06.490Z,98.10
2017-11-06T05:43:34.013Z,98.00
2017-11-06T05:46:01.550Z,98.10
2017-11-06T05:48:29.074Z,98.30
2017-11-06T05:50:56.620Z,98.50
2017-11-06T05:53:24.160Z,98.20
2017-11-06T05:55:51.733Z,98.50
2017-11-06T05:58:19.252Z,98.30
2017-11-06T06:00:46.773Z,98.30
2017-11-06T06:03:14.319Z,98.20
2017-11-06T06:05:41.844Z,98.50
2017-11-06T06:08:09.386Z,98.10
2017-11-06T06:10:36.922Z,98.20
2017-11-06T06:13:04.878Z,98.20
2017-11-06T06:15:32.415Z,98.20
2017-11-06T06:17:59.955Z,97.90
2017-11-06T06:20:27.492Z,98.20
2017-11-06T06:22:55.030Z,98.00
2017-11-06T06:25:22.582Z,98.10
2017-11-06T06:27:50.160Z,98.20
2017-11-06T06:30:17.735Z,98.30
2017-11-06T06:32:45.264Z,98.30
2017-11-06T06:35:12.789Z,98.20
2017-11-06T06:37:40.331Z,98.10
2017-11-06T06:40:07.858Z,98.20
2017-11-06T06:42:35.416Z,98.50
2017-11-06T06:45:02.944Z,98.60
2017-11-06T06:47:30.513Z,98.60
2017-11-06T06:49:58.038Z,98.60
2017-11-06T06:52:25.573Z,98.20
2017-11-06T06:54:53.112Z,98.50
2017-11-06T06:57:21.038Z,98.50
2017-11-06T06:59:48.599Z,98.50
2017-11-06T07:02:16.135Z,98.50
2017-11-06T07:04:44.082Z,98.50
2017-11-06T07:07:11.620Z,98.50
2017-11-06T07:09:39.175Z,98.60
2017-11-06T07:12:06.702Z,98.50
2017-11-06T07:14:34.283Z,98.70
2017-11-06T07:17:01.805Z,98.80
2017-11-06T07:19:29.329Z,98.70
2017-11-06T07:21:56.879Z,98.80
2017-11-06T07:24:24.431Z,98.80
2017-11-06T07:26:51.994Z,98.50
2017-11-06T07:29:19.520Z,98.20
2017-11-06T07:31:47.073Z,98.30
2017-11-06T07:34:14.590Z,98.30
2017-11-06T07:36:42.124Z,98.60
2017-11-06T07:39:09.680Z,98.80
2017-11-06T07:41:37.205Z,99.00
2017-11-06T07:44:04.766Z,99.00
2017-11-06T07:46:32.697Z,99.00
2017-11-06T07:49:00.262Z,98.90
2017-11-06T07:51:27.789Z,98.80
2017-11-06T07:53:55.318Z,99.00
2017-11-06T07:56:22.900Z,98.70
2017-11-06T07:58:50.440Z,98.60
2017-11-06T08:01:18.004Z,98.20
2017-11-06T08:03:45.537Z,98.30
2017-11-06T08:06:13.489Z,98.60
2017-11-06T08:08:41.026Z,98.60
2017-11-06T08:11:08.593Z,98.20
2017-11-06T08:13:36.127Z,98.20
2017-11-06T08:16:03.655Z,98.20
2017-11-06T08:18:31.198Z,98.50
2017-11-06T08:20:58.716Z,98.40
2017-11-06T08:23:26.257Z,98.50
2017-11-06T08:25:53.795Z,98.70
2017-11-06T08:28:21.761Z,98.60
2017-11-06T08:30:49.287Z,98.60
2017-11-06T08:33:23.178Z,98.50
2017-11-06T08:35:50.715Z,98.50
2017-11-06T08:38:18.232Z,98.30
2017-11-06T08:40:45.779Z,98.00
2017-11-06T08:43:13.697Z,98.30
2017-11-06T08:45:41.247Z,98.30
2017-11-06T08:48:08.781Z,98.00
2017-11-06T08:50:36.345Z,97.80
2017-11-06T08:53:03.861Z,98.10
2017-11-06T08:55:31.418Z,97.80
2017-11-06T08:57:59.406Z,98.00
2017-11-06T09:00:27.350Z,97.40
2017-11-06T09:02:54.876Z,97.40
2017-11-06T09:05:22.465Z,96.90
2017-11-06T09:07:50.007Z,96.90
2017-11-06T09:10:17.932Z,97.90
2017-11-06T09:12:45.458Z,97.90
2017-11-06T09:15:13.408Z,98.30
2017-11-06T09:17:40.941Z,98.40
2017-11-06T09:20:08.477Z,98.00
2017-11-06T09:22:36.397Z,98.30
2017-11-06T09:25:03.938Z,98.30
2017-11-06T09:27:31.465Z,98.10
2017-11-06T09:29:59.013Z,97.30
2017-11-06T09:32:26.532Z,97.70
2017-11-06T09:34:54.492Z,97.70
2017-11-06T09:37:22.008Z,97.70
2017-11-06T09:39:49.561Z,97.30
2017-11-06T09:42:17.076Z,96.80
2017-11-06T09:44:44.610Z,97.20
2017-11-06T09:47:12.134Z,97.80
2017-11-06T09:49:39.663Z,98.20
2017-11-06T09:52:07.204Z,98.20
2017-11-06T09:54:35.128Z,97.90
2017-11-06T09:57:02.666Z,97.90
2017-11-06T09:59:30.593Z,97.70
2017-11-06T10:01:58.142Z,97.60
2017-11-06T10:04:25.665Z,97.50
2017-11-06T10:06:53.221Z,97.90
2017-11-06T10:09:20.761Z,97.40
2017-11-06T10:11:48.308Z,97.50
2017-11-06T10:14:16.225Z,96.10
2017-11-06T10:16:43.763Z,96.10
2017-11-06T10:19:11.293Z,96.60
2017-11-06T10:21:38.841Z,96.30
2017-11-06T10:24:06.375Z,96.80
2017-11-06T10:26:34.312Z,97.30
2017-11-06T10:29:01.838Z,97.30
2017-11-06T10:31:29.393Z,97.30
2017-11-06T10:33:57.800Z,95.80
2017-11-06T10:36:25.343Z,96.40
2017-11-06T10:38:52.862Z,96.20
2017-11-06T10:41:20.418Z,96.40
2017-11-06T10:43:47.942Z,96.00
2017-11-06T10:46:15.515Z,96.40
2017-11-06T10:48:43.070Z,95.60
2017-11-06T10:51:10.614Z,95.10
2017-11-06T10:53:38.128Z,95.70
2017-11-06T10:56:05.678Z,95.80
2017-11-06T10:58:33.201Z,96.10
2017-11-06T11:01:01.137Z,95.90
2017-11-06T11:03:28.661Z,95.80
2017-11-06T11:05:56.237Z,95.10
2017-11-06T11:08:23.784Z,95.30
2017-11-06T11:10:51.714Z,95.20
2017-11-06T11:13:19.257Z,95.40
2017-11-06T11:15:46.786Z,93.80
2017-11-06T11:18:14.354Z,93.90
2017-11-06T11:20:41.879Z,93.80
2017-11-06T11:23:09.412Z,92.60
2017-11-06T11:25:36.949Z,94.40
2017-11-06T11:28:04.513Z,94.30
2017-11-06T11:30:32.038Z,93.00
2017-11-06T11:32:59.979Z,93.60
2017-11-06T11:35:27.610Z,93.60
2017-11-06T11:37:55.164Z,94.10
2017-11-06T11:40:22.907Z,93.10
2017-11-06T11:42:50.481Z,93.00
2017-11-06T11:45:18.007Z,93.60
2017-11-06T11:47:45.537Z,93.60
2017-11-06T11:50:13.077Z,94.00
2017-11-06T11:52:40.618Z,94.50
2017-11-06T11:55:08.141Z,92.50
2017-11-06T11:57:35.683Z,93.80
2017-11-06T12:00:03.210Z,94.70
2017-11-06T12:02:31.164Z,94.10
2017-11-06T12:04:58.685Z,94.10
2017-11-06T12:07:26.218Z,93.20
2017-11-06T12:09:53.753Z,92.80
2017-11-06T12:12:21.345Z,92.80
2017-11-06T12:14:48.881Z,92.70
2017-11-06T12:17:16.421Z,92.50
2017-11-06T12:19:44.345Z,93.20
2017-11-06T12:22:11.886Z,93.20
2017-11-06T12:24:39.412Z,93.00
2017-11-06T12:27:06.948Z,93.80
2017-11-06T12:29:34.471Z,94.00
2017-11-06T12:32:02.009Z,92.90
2017-11-06T12:34:29.547Z,93.50
2017-11-06T12:36:57.073Z,94.20
2017-11-06T12:39:24.629Z,94.50
2017-11-06T12:41:52.154Z,94.80
2017-11-06T12:44:19.698Z,94.60
2017-11-06T12:46:47.268Z,93.60
2017-11-06T12:49:14.806Z,94.50
2017-11-06T12:51:42.338Z,94.20
2017-11-06T12:54:09.888Z,93.90
2017-11-06T12:56:37.476Z,93.80
2017-11-06T12:59:05.440Z,94.10
2017-11-06T13:01:32.965Z,94.00
2017-11-06T13:04:00.514Z,94.20
2017-11-06T13:06:28.051Z,93.90
2017-11-06T13:08:55.593Z,93.40
2017-11-06T13:11:23.541Z,93.90
2017-11-06T13:13:51.086Z,93.90
2017-11-06T13:16:19.017Z,94.00
2017-11-06T13:18:46.580Z,94.00
2017-11-06T13:21:14.114Z,93.40
2017-11-06T13:23:41.661Z,93.10
2017-11-06T13:26:09.184Z,93.40
2017-11-06T13:28:36.737Z,94.00
2017-11-06T13:31:04.279Z,94.60
2017-11-06T13:33:31.835Z,94.80
2017-11-06T13:35:59.366Z,94.30
2017-11-06T13:38:26.929Z,94.50
2017-11-06T13:40:54.473Z,94.60
2017-11-06T13:43:22.015Z,93.90
2017-11-06T13:45:49.549Z,94.30
2017-11-06T13:48:17.083Z,94.80
2017-11-06T13:50:44.611Z,94.70
2017-11-06T13:53:12.132Z,94.40
2017-11-06T13:55:40.070Z,94.10
2017-11-06T13:58:07.593Z,94.10
2017-11-06T14:00:35.142Z,93.00
2017-11-06T14:03:02.665Z,92.10
2017-11-06T14:05:30.197Z,92.50
2017-11-06T14:07:58.110Z,92.70
2017-11-06T14:10:25.657Z,92.70
2017-11-06T14:12:53.569Z,92.80
2017-11-06T14:15:21.111Z,92.80
2017-11-06T14:17:49.021Z,92.10
2017-11-06T14:20:16.569Z,92.10
2017-11-06T14:22:44.114Z,92.40
2017-11-06T14:25:12.061Z,92.20
2017-11-06T14:27:39.593Z,92.20
2017-11-06T14:30:07.155Z,91.00
2017-11-06T14:32:34.678Z,91.40
2017-11-06T14:35:02.208Z,91.40
2017-11-06T14:37:29.746Z,90.70
2017-11-06T14:39:57.312Z,90.80
2017-11-06T14:42:24.842Z,90.00
2017-11-06T14:44:52.372Z,91.00
2017-11-06T14:47:19.903Z,90.90
2017-11-06T14:49:47.439Z,90.70
2017-11-06T14:52:14.973Z,91.20
2017-11-06T14:54:42.516Z,90.20
2017-11-06T14:57:10.046Z,89.60
2017-11-06T14:59:37.990Z,90.20
2017-11-06T15:02:05.520Z,90.20
2017-11-06T15:04:33.071Z,90.90
2017-11-06T15:07:00.986Z,91.20
2017-11-06T15:09:28.526Z,91.20
2017-11-06T15:11:56.054Z,90.60
2017-11-06T15:14:23.609Z,89.20
2017-11-06T15:16:51.136Z,91.30
2017-11-06T15:19:19.079Z,91.10
2017-11-06T15:21:46.623Z,91.10
2017-11-06T15:24:14.156Z,91.00
2017-11-06T15:26:42.090Z,91.50
2017-11-06T15:29:09.621Z,91.50
2017-11-06T15:31:37.160Z,92.20
2017-11-06T15:34:04.695Z,92.70
2017-11-06T15:36:32.249Z,92.90
2017-11-06T15:38:59.796Z,93.30
2017-11-06T15:41:27.333Z,93.20
2017-11-06T15:43:54.853Z,93.10
2017-11-06T15:46:22.390Z,93.10
2017-11-06T15:48:49.904Z,93.30
2017-11-06T15:51:17.461Z,93.30
2017-11-06T15:53:45.003Z,93.40
2017-11-06T15:56:12.553Z,93.50
2017-11-06T15:58:40.116Z,93.70
2017-11-06T16:01:07.662Z,94.00
2017-11-06T16:03:35.211Z,94.00
2017-11-06T16:06:03.151Z,93.50
2017-11-06T16:08:30.677Z,93.50
2017-11-06T16:10:58.258Z,93.50
2017-11-06T16:13:25.819Z,92.50
2017-11-06T16:15:53.367Z,92.90
2017-11-06T16:18:21.310Z,92.40
2017-11-06T16:20:48.862Z,92.50
2017-11-06T16:23:16.395Z,92.60
2017-11-06T16:25:44.345Z,93.20
2017-11-06T16:28:11.876Z,93.20
2017-11-06T16:30:39.535Z,93.60
2017-11-06T16:33:07.073Z,94.10
2017-11-06T16:35:34.701Z,93.60
2017-11-06T16:38:02.293Z,92.50
2017-11-06T16:40:29.819Z,93.10
2017-11-06T16:42:57.378Z,93.50
2017-11-06T16:45:25.305Z,93.10
2017-11-06T16:47:52.876Z,93.20
2017-11-06T16:50:20.859Z,93.40
2017-11-06T16:52:48.397Z,93.40
2017-11-06T16:55:15.937Z,93.60
2017-11-06T16:57:43.506Z,93.40
2017-11-06T17:00:11.044Z,92.50
2017-11-06T17:02:38.586Z,93.30
2017-11-06T17:05:06.113Z,93.70
2017-11-06T17:07:33.663Z,93.30
2017-11-06T17:10:01.194Z,93.60
2017-11-06T17:12:29.131Z,93.50
2017-11-06T17:14:56.652Z,93.50
2017-11-06T17:17:24.193Z,93.40
2017-11-06T17:19:51.714Z,93.40
2017-11-06T17:22:19.254Z,93.20
2017-11-06T17:24:47.175Z,92.70
2017-11-06T17:27:14.733Z,92.70
2017-11-06T17:29:42.253Z,92.40
2017-11-06T17:32:09.809Z,92.90
2017-11-06T17:34:37.331Z,93.40
2017-11-06T17:37:04.869Z,93.40
2017-11-06T17:39:32.417Z,93.40
2017-11-06T17:41:59.966Z,93.30
2017-11-06T17:44:27.485Z,93.70
2017-11-06T17:46:55.021Z,93.80
2017-11-06T17:49:22.553Z,94.10
2017-11-06T17:51:50.486Z,93.20
2017-11-06T17:54:18.005Z,93.20
2017-11-06T17:56:45.941Z,93.70
2017-11-06T17:59:13.466Z,93.70
2017-11-06T18:01:41.031Z,93.60
2017-11-06T18:04:08.575Z,93.90
2017-11-06T18:06:36.109Z,94.30
2017-11-06T18:09:03.653Z,94.70
2017-11-06T18:11:31.186Z,94.00
2017-11-06T18:13:58.729Z,93.20
2017-11-06T18:16:26.262Z,93.30
2017-11-06T18:18:53.801Z,94.00
2017-11-06T18:21:21.325Z,94.20
2017-11-06T18:23:48.866Z,94.50
2017-11-06T18:26:16.809Z,94.10
2017-11-06T18:28:44.352Z,94.10
2017-11-06T18:31:11.900Z,94.40
2017-11-06T18:33:39.443Z,94.70
2017-11-06T18:36:06.972Z,94.90
2017-11-06T18:38:34.507Z,95.10
2017-11-06T18:41:02.043Z,95.10
2017-11-06T18:43:29.582Z,95.40
2017-11-06T18:45:57.144Z,95.20
2017-11-06T18:48:24.689Z,95.40
2017-11-06T18:50:52.258Z,95.20
2017-11-06T18:53:19.794Z,95.20
2017-11-06T18:55:47.318Z,95.30
2017-11-06T18:58:14.869Z,95.80
2017-11-06T19:00:42.797Z,95.50
2017-11-06T19:03:10.328Z,95.50
2017-11-06T19:05:38.246Z,95.80
2017-11-06T19:08:05.785Z,95.80
2017-11-06T19:10:33.315Z,95.40
2017-11-06T19:13:00.848Z,95.40
2017-11-06T19:15:28.370Z,95.70
2017-11-06T19:17:55.907Z,96.10
2017-11-06T19:20:23.425Z,96.20
2017-11-06T19:22:51.851Z,96.40
2017-11-06T19:25:19.379Z,96.30
2017-11-06T19:27:46.898Z,98.40
2017-11-06T19:30:14.426Z,98.60
2017-11-06T19:32:41.965Z,98.90
2017-11-06T19:35:09.500Z,99.00
2017-11-06T19:37:37.021Z,99.30
2017-11-06T19:40:04.555Z,98.80
2017-11-06T19:42:32.091Z,98.60
2017-11-06T19:44:59.718Z,98.50
2017-11-06T19:47:27.246Z,98.30
2017-11-06T19:49:54.786Z,98.30
2017-11-06T19:52:22.322Z,98.30
2017-11-06T19:54:49.886Z,98.40
2017-11-06T19:57:17.418Z,98.30
2017-11-06T19:59:45.363Z,98.60
2017-11-06T20:02:12.896Z,98.60
2017-11-06T20:04:40.453Z,98.60
2017-11-06T20:07:07.978Z,98.60
2017-11-06T20:09:35.517Z,98.70
2017-11-06T20:12:03.098Z,98.70
2017-11-06T20:14:30.649Z,98.80
2017-11-06T20:16:58.179Z,98.80
2017-11-06T20:19:25.734Z,98.80
2017-11-06T20:21:53.287Z,98.90
2017-11-06T20:24:20.848Z,98.90
2017-11-06T20:26:48.378Z,98.80
2017-11-06T20:29:15.938Z,98.60
2017-11-06T20:31:43.467Z,98.60
2017-11-06T20:34:11.150Z,98.50
2017-11-06T20:36:38.679Z,98.60
2017-11-06T20:39:06.755Z,98.60
2017-11-06T20:41:34.301Z,98.70
2017-11-06T20:44:01.841Z,98.60
2017-11-06T20:46:29.366Z,98.60
2017-11-06T20:48:56.935Z,98.70
2017-11-06T20:51:24.889Z,98.70
2017-11-06T20:53:52.416Z,98.60
2017-11-06T20:56:19.996Z,98.60
2017-11-06T20:58:47.568Z,98.60
2017-11-06T21:01:15.129Z,98.50
2017-11-06T21:03:42.665Z,98.40
2017-11-06T21:06:10.212Z,98.40
2017-11-06T21:08:37.724Z,98.30
2017-11-06T21:11:05.716Z,98.10
2017-11-06T21:13:33.639Z,98.00
2017-11-06T21:16:01.169Z,98.00
2017-11-06T21:18:28.708Z,98.00
2017-11-06T21:20:56.263Z,97.90
2017-11-06T21:23:23.802Z,98.00
2017-11-06T21:25:51.371Z,97.80
2017-11-06T21:28:18.926Z,97.70
2017-11-06T21:30:51.272Z,97.60
2017-11-06T21:33:18.819Z,97.60
2017-11-06T21:35:46.366Z,97.50
2017-11-06T21:38:13.917Z,97.30
2017-11-06T21:40:41.864Z,97.40
2017-11-06T21:43:09.415Z,97.30
2017-11-06T21:45:36.950Z,97.30
2017-11-06T21:48:04.945Z,97.10
2017-11-06T21:50:32.477Z,97.10
2017-11-06T21:53:00.014Z,96.80
2017-11-06T21:55:27.952Z,96.90
2017-11-06T21:57:55.510Z,96.90
2017-11-06T22:00:23.026Z,96.70
2017-11-06T22:02:50.606Z,96.70
2017-11-06T22:05:18.143Z,96.80
2017-11-06T22:07:46.072Z,96.90
2017-11-06T22:10:13.830Z,96.90
2017-11-06T22:12:41.357Z,96.90
2017-11-06T22:15:09.294Z,97.00
2017-11-06T22:17:36.823Z,96.90
2017-11-06T22:20:04.820Z,97.00
2017-11-06T22:22:32.366Z,97.00
2017-11-06T22:24:59.942Z,97.00
2017-11-06T22:27:27.475Z,97.00
2017-11-06T22:29:55.003Z,97.10
2017-11-06T22:32:22.546Z,97.00
2017-11-06T22:34:50.475Z,96.70
2017-11-06T22:37:18.015Z,96.70
2017-11-06T22:39:45.927Z,96.10
2017-11-06T22:42:13.471Z,96.20
2017-11-06T22:44:41.011Z,95.40
2017-11-06T22:47:08.574Z,95.50
2017-11-06T22:49:36.100Z,95.40
2017-11-06T22:52:03.612Z,95.40
2017-11-06T22:54:31.175Z,95.60
2017-11-06T22:56:58.704Z,95.80
2017-11-06T22:59:26.257Z,95.50
2017-11-06T23:01:53.789Z,95.50
2017-11-06T23:04:21.322Z,95.50
2017-11-06T23:06:48.845Z,95.70
2017-11-06T23:09:16.411Z,95.60
2017-11-06T23:11:43.931Z,95.60
2017-11-06T23:14:11.452Z,95.80
2017-11-06T23:16:39.004Z,95.70
2017-11-06T23:19:06.531Z,95.50
2017-11-06T23:21:34.097Z,95.50
2017-11-06T23:24:02.021Z,95.50
2017-11-06T23:26:29.574Z,95.50
2017-11-06T23:28:57.118Z,95.60
2017-11-06T23:31:25.193Z,95.30
2017-11-06T23:33:52.777Z,95.30
2017-11-06T23:36:20.293Z,95.20
2017-11-06T23:38:47.830Z,94.80
2017-11-06T23:41:15.405Z,94.40
2017-11-06T23:43:43.510Z,94.50
2017-11-06T23:46:11.028Z,94.50
2017-11-06T23:48:38.578Z,94.40
2017-11-06T23:51:06.107Z,94.30
2017-11-06T23:53:33.682Z,94.40
2017-11-06T23:56:01.205Z,94.00
2017-11-06T23:58:28.729Z,93.80
